METAR Data
IDs: Format: Raw Decoded Include TAF

Data at: 0204 UTC 01 Mar 2021

OPIS 010125Z 28004KT 6000 NSC 12/04 Q1014 NOSIG